createdAt,value
2023-04-17T00:00:39.591Z,8.15
2023-04-17T00:04:40.974Z,8.9
2023-04-17T00:08:40.457Z,8.57
2023-04-17T00:12:40.047Z,7.95
2023-04-17T00:16:40.620Z,8.5
2023-04-17T00:20:39.871Z,8.3
2023-04-17T00:24:40.888Z,9
2023-04-17T00:28:40.466Z,9.32
2023-04-17T00:32:40.646Z,9
2023-04-17T00:36:40.534Z,8.05
2023-04-17T00:40:39.620Z,8.85
2023-04-17T00:44:40.498Z,8.6
2023-04-17T00:48:40.514Z,9.75
2023-04-17T00:52:40.432Z,8.95
2023-04-17T00:56:40.549Z,8.43
2023-04-17T01:00:40.465Z,7.9
2023-04-17T01:04:40.268Z,8.57
2023-04-17T01:08:40.519Z,8.65
2023-04-17T01:12:40.729Z,7.32
2023-04-17T01:16:40.796Z,8.32
2023-04-17T01:20:40.654Z,8.3
2023-04-17T01:24:40.695Z,8.73
2023-04-17T01:28:40.507Z,8.45
2023-04-17T01:32:40.554Z,7.68
2023-04-17T01:36:39.445Z,6.7
2023-04-17T01:40:40.726Z,6.6
2023-04-17T01:44:40.503Z,6.25
2023-04-17T01:48:40.820Z,5.85
2023-04-17T01:52:40.412Z,6.5
2023-04-17T01:56:40.418Z,5
2023-04-17T02:00:41.177Z,6
2023-04-17T02:04:41.029Z,6.18
2023-04-17T02:08:40.627Z,5.2
2023-04-17T02:12:40.975Z,5.62
2023-04-17T02:16:40.337Z,5.28
2023-04-17T02:20:40.414Z,5.1
2023-04-17T02:24:40.549Z,5.72
2023-04-17T02:28:40.537Z,4.93
2023-04-17T02:32:40.336Z,5.35
2023-04-17T02:36:40.607Z,5.3
2023-04-17T02:40:40.552Z,5.15
2023-04-17T02:44:40.628Z,4.93
2023-04-17T02:48:40.525Z,5.22
2023-04-17T02:52:40.500Z,5.47
2023-04-17T02:56:40.353Z,4.78
2023-04-17T03:00:40.512Z,4.65
2023-04-17T03:04:40.615Z,4.1
2023-04-17T03:08:40.549Z,3.95
2023-04-17T03:12:40.370Z,4.28
2023-04-17T03:16:40.319Z,3.85
2023-04-17T03:20:40.259Z,3.35
2023-04-17T03:24:40.278Z,3.72
2023-04-17T03:28:40.497Z,4.22
2023-04-17T03:32:40.496Z,4.2
2023-04-17T03:36:40.589Z,4.5
2023-04-17T03:40:39.834Z,3.95
2023-04-17T03:44:40.774Z,4
2023-04-17T03:48:40.507Z,3.97
2023-04-17T03:52:40.328Z,4.18
2023-04-17T03:56:40.553Z,4.78
2023-04-17T04:00:40.468Z,4.3
2023-04-17T04:04:40.412Z,4.28
2023-04-17T04:08:40.525Z,4.45
2023-04-17T04:12:40.455Z,4.9
2023-04-17T04:16:40.405Z,4.68
2023-04-17T04:20:40.482Z,4.62
2023-04-17T04:24:39.705Z,4.45
2023-04-17T04:28:40.684Z,4.65
2023-04-17T04:32:41.022Z,4.57
2023-04-17T04:36:40.516Z,4.43
2023-04-17T04:40:40.712Z,4.32
2023-04-17T04:44:39.816Z,4.57
2023-04-17T04:48:42.711Z,4.65
2023-04-17T04:52:40.425Z,4.62
2023-04-17T04:56:41.195Z,5.1
2023-04-17T05:00:40.554Z,5.3
2023-04-17T05:04:41.057Z,5.72
2023-04-17T05:08:40.418Z,5.62
2023-04-17T05:12:40.460Z,6
2023-04-17T05:16:41.257Z,5.82
2023-04-17T05:20:41.058Z,5.68
2023-04-17T05:24:40.487Z,6.53
2023-04-17T05:28:40.627Z,6.15
2023-04-17T05:32:41.181Z,5.87
2023-04-17T05:36:40.490Z,5.7
2023-04-17T05:40:40.954Z,5.2
2023-04-17T05:44:40.430Z,5.32
2023-04-17T05:48:41.152Z,5.25
2023-04-17T05:52:40.516Z,5.43
2023-04-17T05:56:40.463Z,5.1
2023-04-17T06:00:40.847Z,5.82
2023-04-17T06:04:40.481Z,5.68
2023-04-17T06:08:40.548Z,5.37
2023-04-17T06:12:39.599Z,5.78
2023-04-17T06:16:40.581Z,7.03
2023-04-17T06:20:40.490Z,5.57
2023-04-17T06:24:40.773Z,4.7
2023-04-17T06:28:40.397Z,5.3
2023-04-17T06:32:40.469Z,4.82
2023-04-17T06:36:40.670Z,4.68
2023-04-17T06:40:40.636Z,5.07
2023-04-17T06:44:40.517Z,4.65
2023-04-17T06:48:40.400Z,5.03
2023-04-17T06:52:40.910Z,5.22
2023-04-17T06:56:40.512Z,6
2023-04-17T07:00:40.693Z,5.5
2023-04-17T07:04:40.581Z,5.72
2023-04-17T07:08:40.561Z,6.47
2023-04-17T07:12:40.870Z,5.87
2023-04-17T07:16:40.418Z,6.25
2023-04-17T07:20:40.488Z,5.62
2023-04-17T07:24:40.499Z,6.78
2023-04-17T07:28:40.511Z,6.15
2023-04-17T07:32:39.594Z,6.05
2023-04-17T07:36:40.496Z,6.05
2023-04-17T07:40:40.562Z,6.9
2023-04-17T07:44:40.480Z,6.47
2023-04-17T07:48:39.331Z,6.75
2023-04-17T07:52:41.167Z,6.57
2023-04-17T07:56:40.458Z,7.18
2023-04-17T08:00:40.612Z,7.53
2023-04-17T08:04:40.700Z,6.85
2023-04-17T08:08:40.465Z,7.15
2023-04-17T08:12:39.359Z,7.18
2023-04-17T08:16:39.887Z,7.18
2023-04-17T08:20:39.698Z,6.85
2023-04-17T08:24:40.413Z,7.32
2023-04-17T08:28:40.596Z,6.68
2023-04-17T08:32:41.176Z,7.6
2023-04-17T08:36:40.730Z,8.18
2023-04-17T08:40:40.640Z,8.65
2023-04-17T08:44:40.571Z,7.57
2023-04-17T08:48:40.558Z,7.75
2023-04-17T08:52:41.209Z,8.07
2023-04-17T08:56:40.283Z,8.35
2023-04-17T09:00:40.870Z,8.75
2023-04-17T09:04:41.304Z,8.5
2023-04-17T09:08:40.429Z,7.72
2023-04-17T09:12:40.251Z,8.05
2023-04-17T09:16:40.578Z,8.85
2023-04-17T09:20:40.533Z,9.27
2023-04-17T09:24:40.519Z,9
2023-04-17T09:28:40.455Z,9.4
2023-04-17T09:32:41.003Z,9.07
2023-04-17T09:36:41.262Z,8.57
2023-04-17T09:40:40.535Z,8.13
2023-04-17T09:44:40.783Z,9.18
2023-04-17T09:48:40.750Z,8.73
2023-04-17T09:52:40.379Z,9.98
2023-04-17T09:56:40.509Z,9.13
2023-04-17T10:00:40.602Z,9.25
2023-04-17T10:04:40.877Z,9.57
2023-04-17T10:08:40.395Z,9.4
2023-04-17T10:12:40.116Z,9.38
2023-04-17T10:16:39.956Z,10.38
2023-04-17T10:20:40.865Z,11.18
2023-04-17T10:24:40.551Z,10.52
2023-04-17T10:28:40.456Z,8.77
2023-04-17T10:32:39.828Z,10.52
2023-04-17T10:36:40.519Z,9.77
2023-04-17T10:40:40.603Z,10.35
2023-04-17T10:44:40.444Z,9.3
2023-04-17T10:48:40.494Z,11.12
2023-04-17T10:52:40.140Z,9.25
2023-04-17T10:56:41.041Z,10.43
2023-04-17T11:00:41.055Z,9.6
2023-04-17T11:04:40.729Z,10.52
2023-04-17T11:08:40.455Z,9.23
2023-04-17T11:12:40.530Z,10.27
2023-04-17T11:16:40.618Z,7.78
2023-04-17T11:20:40.499Z,9.38
2023-04-17T11:24:40.454Z,9.32
2023-04-17T11:28:40.826Z,9.23
2023-04-17T11:32:41.079Z,8.75
2023-04-17T11:36:40.252Z,9.52
2023-04-17T11:40:40.626Z,8.32
2023-04-17T11:44:40.515Z,9.18
2023-04-17T11:48:40.777Z,9.32
2023-04-17T11:52:40.565Z,8.98
2023-04-17T11:56:40.466Z,7.78
2023-04-17T12:00:40.942Z,6.9
2023-04-17T12:04:40.774Z,7.35
2023-04-17T12:08:40.470Z,7.87
2023-04-17T12:12:39.838Z,7.9
2023-04-17T12:16:40.718Z,7.78
2023-04-17T12:20:40.508Z,7.55
2023-04-17T12:24:40.441Z,7.12
2023-04-17T12:28:40.461Z,6.97
2023-04-17T12:32:40.360Z,6.9
2023-04-17T12:36:40.549Z,6.85
2023-04-17T12:40:40.761Z,6.72
2023-04-17T12:44:40.443Z,5.47
2023-04-17T12:48:39.694Z,7.25
2023-04-17T12:52:40.480Z,6.12
2023-04-17T12:56:40.479Z,5.7
2023-04-17T13:00:41.044Z,6.05
2023-04-17T13:04:41.276Z,5.75
2023-04-17T13:08:40.851Z,5.35
2023-04-17T13:12:39.987Z,5.8
2023-04-17T13:16:40.236Z,5.37
2023-04-17T13:20:40.615Z,4.57
2023-04-17T13:24:41.141Z,5.75
2023-04-17T13:28:40.496Z,4.75
2023-04-17T13:32:40.731Z,5.15
2023-04-17T13:36:40.934Z,5.2
2023-04-17T13:40:40.589Z,6
2023-04-17T13:44:40.532Z,5.07
2023-04-17T13:48:40.682Z,5.05
2023-04-17T13:52:40.490Z,5.47
2023-04-17T13:56:40.608Z,5.9
2023-04-17T14:00:40.428Z,5.78
2023-04-17T14:04:40.801Z,5.55
2023-04-17T14:08:41.807Z,5.12
2023-04-17T14:12:40.566Z,5.25
2023-04-17T14:16:40.575Z,4.93
2023-04-17T14:20:40.525Z,4.72
2023-04-17T14:24:40.450Z,4.87
2023-04-17T14:28:40.399Z,5.18
2023-04-17T14:32:40.669Z,4.43
2023-04-17T14:36:41.488Z,4.93
2023-04-17T14:40:40.557Z,5.68
2023-04-17T14:44:40.873Z,5.57
2023-04-17T14:48:54.120Z,6.75
2023-04-17T14:52:39.474Z,6.82
2023-04-17T14:56:40.592Z,7.75
2023-04-17T15:00:40.486Z,7.03
2023-04-17T15:04:41.230Z,6.4
2023-04-17T15:08:40.480Z,7.43
2023-04-17T15:12:40.802Z,8.77
2023-04-17T15:16:40.589Z,6.87
2023-04-17T15:20:40.768Z,5.6
2023-04-17T15:24:40.391Z,6.35
2023-04-17T15:28:39.726Z,5.87
2023-04-17T15:32:40.986Z,5.7
2023-04-17T15:36:40.654Z,5.68
2023-04-17T15:40:40.497Z,5.57
2023-04-17T15:44:40.577Z,5.87
2023-04-17T15:48:41.111Z,6.62
2023-04-17T15:52:40.512Z,6.05
2023-04-17T15:56:40.599Z,6.7
2023-04-17T16:00:39.709Z,6.22
2023-04-17T16:04:40.658Z,6.57
2023-04-17T16:08:40.350Z,6.22
2023-04-17T16:12:41.640Z,7.45
2023-04-17T16:16:40.358Z,6.47
2023-04-17T16:20:40.541Z,6.4
2023-04-17T16:24:40.482Z,5.25
2023-04-17T16:28:40.480Z,4.95
2023-04-17T16:32:40.352Z,5.1
2023-04-17T16:36:45.376Z,6.18
2023-04-17T16:40:40.548Z,5.53
2023-04-17T16:44:40.489Z,5.2
2023-04-17T16:48:40.877Z,5.85
2023-04-17T16:52:41.040Z,5.93
2023-04-17T16:56:40.294Z,6.35
2023-04-17T17:00:40.486Z,7
2023-04-17T17:04:40.679Z,7.25
2023-04-17T17:08:40.485Z,6.87
2023-04-17T17:12:39.398Z,7.97
2023-04-17T17:16:40.642Z,7.5
2023-04-17T17:20:40.563Z,8.55
2023-04-17T17:24:40.583Z,9.07
2023-04-17T17:28:40.447Z,8.95
2023-04-17T17:32:40.374Z,8.7
2023-04-17T17:36:40.688Z,9.02
2023-04-17T17:40:40.754Z,8.98
2023-04-17T17:44:39.887Z,8.35
2023-04-17T17:48:40.578Z,7.55
2023-04-17T17:52:40.507Z,8.3
2023-04-17T17:56:40.459Z,8.23
2023-04-17T18:00:40.543Z,8.38
2023-04-17T18:04:40.696Z,9.1
2023-04-17T18:08:40.412Z,9.1
2023-04-17T18:12:40.335Z,10.35
2023-04-17T18:16:40.615Z,9.65
2023-04-17T18:20:40.821Z,10.2
2023-04-17T18:24:40.500Z,9.93
2023-04-17T18:28:40.362Z,10.52
2023-04-17T18:32:40.688Z,10.27
2023-04-17T18:36:40.654Z,11.85
2023-04-17T18:40:40.921Z,11.65
2023-04-17T18:44:40.656Z,13.38
2023-04-17T18:48:40.708Z,11.88
2023-04-17T18:52:41.034Z,13.4
2023-04-17T18:56:40.482Z,13.25
2023-04-17T19:00:40.665Z,15.82
2023-04-17T19:04:40.459Z,14.73
2023-04-17T19:08:40.636Z,16.77
2023-04-17T19:12:40.530Z,16.75
2023-04-17T19:16:40.701Z,16.52
2023-04-17T19:20:40.930Z,16
2023-04-17T19:24:40.620Z,16.27
2023-04-17T19:28:40.621Z,17.05
2023-04-17T19:32:40.915Z,15.57
2023-04-17T19:36:40.561Z,17.85
2023-04-17T19:40:40.811Z,18.45
2023-04-17T19:44:41.065Z,17.33
2023-04-17T19:48:40.301Z,19.75
2023-04-17T19:52:40.330Z,19.15
2023-04-17T19:56:40.250Z,18.1
2023-04-17T20:00:40.660Z,19.45
2023-04-17T20:04:40.682Z,20.83
2023-04-17T20:08:41.023Z,19.05
2023-04-17T20:12:40.666Z,18.58
2023-04-17T20:16:40.527Z,20
2023-04-17T20:20:40.606Z,19.12
2023-04-17T20:24:40.401Z,20.33
2023-04-17T20:28:40.687Z,19.65
2023-04-17T20:32:40.549Z,19.3
2023-04-17T20:36:40.290Z,18.42
2023-04-17T20:40:40.533Z,18.6
2023-04-17T20:44:40.506Z,18.77
2023-04-17T20:48:40.567Z,18.33
2023-04-17T20:52:40.378Z,17.42
2023-04-17T20:56:40.347Z,17.17
2023-04-17T21:00:53.974Z,16.23
2023-04-17T21:04:40.606Z,16.58
2023-04-17T21:08:40.501Z,15.82
2023-04-17T21:12:40.414Z,14.7
2023-04-17T21:16:40.335Z,15.35
2023-04-17T21:20:40.472Z,14.57
2023-04-17T21:24:40.613Z,14.5
2023-04-17T21:28:40.401Z,13.45
2023-04-17T21:32:40.574Z,13.57
2023-04-17T21:36:40.412Z,13.57
2023-04-17T21:40:50.627Z,13.5
2023-04-17T21:44:39.698Z,12.8
2023-04-17T21:48:41.173Z,12.23
2023-04-17T21:52:40.485Z,13.15
2023-04-17T21:56:40.267Z,12.07
2023-04-17T22:00:41.203Z,11.57
2023-04-17T22:04:40.107Z,12.48
2023-04-17T22:08:40.699Z,13.27
2023-04-17T22:12:40.564Z,10.93
2023-04-17T22:16:40.491Z,10.43
2023-04-17T22:20:40.283Z,11.38
2023-04-17T22:24:40.495Z,11.57
2023-04-17T22:28:40.397Z,12.18
2023-04-17T22:32:40.617Z,11.85
2023-04-17T22:36:40.680Z,11.63
2023-04-17T22:40:40.486Z,12.27
2023-04-17T22:44:40.560Z,12.18
2023-04-17T22:48:40.562Z,11.82
2023-04-17T22:52:40.440Z,12.3
2023-04-17T22:56:40.265Z,12.63
2023-04-17T23:00:40.406Z,11.07
2023-04-17T23:04:40.622Z,12.98
2023-04-17T23:08:39.642Z,11.82
2023-04-17T23:12:40.485Z,12.13
2023-04-17T23:16:40.510Z,12.73
2023-04-17T23:20:40.405Z,13.7
2023-04-17T23:24:40.509Z,14.1
2023-04-17T23:28:40.464Z,13.07
2023-04-17T23:32:40.559Z,14.52
2023-04-17T23:36:40.426Z,13.77
2023-04-17T23:40:40.803Z,15
2023-04-17T23:44:40.373Z,15.2
2023-04-17T23:48:40.715Z,14.07
2023-04-17T23:52:39.291Z,13.45
2023-04-17T23:56:40.551Z,14.07
